Terminal Aerodrome Forecast
Issued by NWS Tampa Bay Area, FL

Home | Current Version | Previous Version | Text Only | Print | Product List | Glossary Off
Versions: 1 2 3 4 5 6 7 8 9 10 11 12 13 14 15 16 17 18 19 20 21 22 23 24 25 26 27 28 29 30

174
FTUS42 KTBW 162332
TAFTPA
TAF
KTPA 162332Z 1700/1724 36005KT P6SM SCT050 BKN250
     FM170300 03004KT P6SM VCSH SCT040 SCT150 BKN250
     FM170900 04005KT P6SM SCT025 BKN150
     FM171400 05007KT P6SM SCT025 OVC130
     FM171800 05010KT P6SM VCSH SCT025 BKN040 OVC130=

USA.gov is the U.S. government's official web portal to all federal, state and local government web resources and services.